Time;durP1;ratioP1;P1;durP2;ratioP2;P2;SDS_P1;SDS_P2;PMS_P1;PMS_P2;Temp;Humidity;BMP_temperature;BMP_pressure;BME280_temperature;BME280_humidity;BME280_pressure;Samples;Min_cycle;Max_cycle;Signal;HPM_P1;HPM_P2
2022/09/30 00:00:37;;;;;;;7.03;3.78;;;;;;;13.74;100.00;94301.34;5130018;28;20768;-74
2022/09/30 00:03:03;;;;;;;5.18;2.95;;;;;;;13.73;100.00;94322.31;5129604;28;20213;-74
2022/09/30 00:05:32;;;;;;;6.00;3.35;;;;;;;13.51;100.00;94310.19;5129860;28;20201;-74
2022/09/30 00:07:58;;;;;;;8.77;3.58;;;;;;;13.45;100.00;94327.91;5129140;28;20665;-73
2022/09/30 00:10:25;;;;;;;6.97;3.80;;;;;;;13.53;100.00;94328.84;5129228;28;20269;-74
2022/09/30 00:12:53;;;;;;;7.50;2.95;;;;;;;13.51;100.00;94331.94;5129763;28;20217;-74
2022/09/30 00:15:19;;;;;;;6.68;3.88;;;;;;;13.58;100.00;94322.34;5129239;28;20205;-74
2022/09/30 00:17:46;;;;;;;5.63;3.85;;;;;;;13.64;100.00;94320.94;5129552;27;20573;-74
2022/09/30 00:20:14;;;;;;;8.65;3.13;;;;;;;13.65;100.00;94317.09;5128801;28;20275;-74
2022/09/30 00:22:43;;;;;;;8.50;4.38;;;;;;;13.71;100.00;94319.16;5129180;27;20227;-74
2022/09/30 00:25:10;;;;;;;8.75;4.80;;;;;;;13.63;100.00;94330.25;5128671;27;20208;-74
2022/09/30 00:27:37;;;;;;;11.65;3.58;;;;;;;13.47;100.00;94336.50;5128768;28;20186;-74
2022/09/30 00:30:05;;;;;;;7.43;3.70;;;;;;;13.47;100.00;94346.59;5129470;27;20258;-75
2022/09/30 00:32:31;;;;;;;4.47;3.10;;;;;;;13.45;100.00;94344.22;5129933;27;20209;-75
2022/09/30 00:34:58;;;;;;;6.05;4.15;;;;;;;13.38;100.00;94337.84;5129337;27;20625;-75
2022/09/30 00:37:25;;;;;;;5.13;3.85;;;;;;;13.47;100.00;94354.75;5132377;27;20217;-75
2022/09/30 00:39:53;;;;;;;6.95;3.50;;;;;;;13.47;100.00;94341.94;5132898;27;20229;-75
2022/09/30 00:42:20;;;;;;;9.43;4.68;;;;;;;13.52;100.00;94328.09;5132765;27;20599;-75
2022/09/30 00:44:53;;;;;;;5.47;3.22;;;;;;;13.53;100.00;94312.50;5132249;27;20316;-75
2022/09/30 00:47:52;;;;;;;5.78;3.20;;;;;;;13.52;100.00;94314.47;5133294;27;20567;-75
2022/09/30 00:50:24;;;;;;;5.82;3.53;;;;;;;13.49;100.00;94317.09;5048662;28;20573;-74
2022/09/30 00:52:55;;;;;;;7.30;3.58;;;;;;;13.58;100.00;94303.31;5084086;28;20263;-74
2022/09/30 00:55:31;;;;;;;7.30;4.10;;;;;;;13.46;100.00;94318.59;5092109;28;20251;-74
2022/09/30 00:58:01;;;;;;;8.38;4.63;;;;;;;13.52;100.00;94313.69;5091785;28;20190;-76
2022/09/30 01:00:28;;;;;;;6.80;3.88;;;;;;;13.50;100.00;94324.91;5091358;28;20234;-74
2022/09/30 01:02:55;;;;;;;7.28;4.45;;;;;;;13.45;100.00;94327.91;5091332;28;20602;-75
2022/09/30 01:05:24;;;;;;;5.25;3.53;;;;;;;13.34;100.00;94326.88;5091278;28;20202;-74
2022/09/30 01:07:51;;;;;;;6.72;3.60;;;;;;;13.21;100.00;94328.09;5091642;28;20203;-74
2022/09/30 01:10:18;;;;;;;7.90;4.13;;;;;;;13.19;100.00;94324.94;5082442;28;20226;-74
2022/09/30 01:12:47;;;;;;;6.03;3.40;;;;;;;13.22;100.00;94321.50;5087047;28;20210;-74
2022/09/30 01:15:14;;;;;;;7.10;4.13;;;;;;;13.25;100.00;94311.88;5091044;28;20198;-74
2022/09/30 01:17:52;;;;;;;12.98;5.50;;;;;;;13.24;100.00;94319.25;5091216;28;20240;-75
2022/09/30 01:20:53;;;;;;;9.73;4.90;;;;;;;13.20;100.00;94315.63;5091302;28;20222;-76
2022/09/30 01:23:53;;;;;;;7.68;4.55;;;;;;;13.24;100.00;94332.06;5091342;28;20723;-76
2022/09/30 01:26:57;;;;;;;7.85;4.30;;;;;;;13.20;100.00;94321.06;5091155;28;20585;-74
2022/09/30 01:29:53;;;;;;;6.00;3.30;;;;;;;13.19;100.00;94335.81;5077146;28;20202;-76
2022/09/30 01:32:33;;;;;;;7.03;4.32;;;;;;;13.06;100.00;94331.56;5090588;28;20717;-76
2022/09/30 01:35:10;;;;;;;7.07;4.35;;;;;;;12.89;100.00;94321.81;5091237;28;20206;-75
2022/09/30 01:37:44;;;;;;;11.65;4.30;;;;;;;12.86;100.00;94324.44;5090477;28;20198;-75
2022/09/30 01:40:22;;;;;;;8.98;5.07;;;;;;;12.91;100.00;94340.50;5090407;28;20222;-76
2022/09/30 01:42:56;;;;;;;10.63;5.05;;;;;;;13.03;100.00;94321.38;5090539;28;20428;-75
2022/09/30 01:45:33;;;;;;;10.02;4.50;;;;;;;13.06;100.00;94331.56;5090442;28;20255;-76
2022/09/30 01:48:08;;;;;;;10.57;4.68;;;;;;;12.90;100.00;94312.53;5090241;28;20237;-76
2022/09/30 01:50:47;;;;;;;9.00;4.60;;;;;;;12.96;100.00;94337.53;5122393;27;20236;-76
2022/09/30 01:53:19;;;;;;;11.73;4.80;;;;;;;12.87;100.00;94334.16;5131328;27;20196;-76
2022/09/30 01:55:53;;;;;;;8.80;4.32;;;;;;;12.77;100.00;94330.84;5131973;27;20193;-76
2022/09/30 01:58:26;;;;;;;11.05;5.82;;;;;;;12.74;100.00;94320.66;5131986;27;20298;-76
2022/09/30 02:00:58;;;;;;;11.60;5.55;;;;;;;12.75;100.00;94322.22;5133221;27;20686;-76
2022/09/30 02:03:31;;;;;;;11.35;5.28;;;;;;;12.83;100.00;94328.66;5120640;27;20204;-76
2022/09/30 02:06:03;;;;;;;8.20;3.58;;;;;;;12.74;100.00;94330.72;5135385;27;20197;-75
2022/09/30 02:08:38;;;;;;;10.52;4.75;;;;;;;12.53;100.00;94330.97;5132163;27;20219;-74
2022/09/30 02:11:09;;;;;;;9.43;4.55;;;;;;;12.54;100.00;94331.75;5132365;27;20701;-75
2022/09/30 02:13:42;;;;;;;7.05;4.70;;;;;;;12.57;100.00;94337.28;5131594;27;20209;-75
2022/09/30 02:16:16;;;;;;;7.72;4.25;;;;;;;12.62;100.00;94345.19;5131893;27;20277;-75
2022/09/30 02:18:49;;;;;;;8.38;4.70;;;;;;;12.62;100.00;94342.47;5132209;27;20196;-76
2022/09/30 02:21:20;;;;;;;9.13;4.38;;;;;;;12.62;100.00;94349.81;5131431;27;20579;-74
2022/09/30 02:23:49;;;;;;;6.15;3.85;;;;;;;12.51;100.00;94352.25;5130729;27;20214;-75
2022/09/30 02:26:21;;;;;;;6.93;3.90;;;;;;;12.43;100.00;94343.13;5130885;27;20314;-75
2022/09/30 02:28:52;;;;;;;7.78;4.72;;;;;;;12.37;100.00;94354.56;5130718;27;20591;-75
2022/09/30 02:31:23;;;;;;;9.50;5.47;;;;;;;12.36;100.00;94353.00;5131216;27;20644;-75
2022/09/30 02:33:56;;;;;;;6.53;3.75;;;;;;;12.39;100.00;94363.16;5130996;27;20281;-75
2022/09/30 02:36:29;;;;;;;8.80;4.55;;;;;;;12.33;100.00;94359.91;5130775;27;20208;-75
2022/09/30 02:39:02;;;;;;;7.72;4.60;;;;;;;12.38;100.00;94356.16;5130998;27;20200;-76
2022/09/30 02:41:33;;;;;;;8.00;4.20;;;;;;;12.35;100.00;94351.41;5127981;27;20213;-76
2022/09/30 02:44:02;;;;;;;9.02;5.47;;;;;;;12.44;100.00;94344.69;5112995;27;20506;-76
2022/09/30 02:46:40;;;;;;;7.97;4.32;;;;;;;12.48;100.00;94347.50;5117301;27;20677;-75
2022/09/30 02:49:19;;;;;;;7.82;4.25;;;;;;;12.40;100.00;94335.66;5125768;27;20703;-75
2022/09/30 02:52:02;;;;;;;10.25;5.38;;;;;;;12.32;100.00;94333.88;5128849;27;20209;-75
2022/09/30 02:54:34;;;;;;;7.55;3.88;;;;;;;12.32;100.00;94339.28;5130507;27;20609;-75
2022/09/30 02:57:11;;;;;;;9.02;4.22;;;;;;;12.30;100.00;94343.50;5130288;27;20200;-75
2022/09/30 02:59:39;;;;;;;5.63;3.55;;;;;;;12.14;100.00;94350.81;5129226;27;20351;-75
2022/09/30 03:02:06;;;;;;;6.68;3.63;;;;;;;11.98;100.00;94351.53;5130199;27;20220;-76
2022/09/30 03:04:35;;;;;;;7.68;3.72;;;;;;;11.92;100.00;94357.50;5130468;27;20246;-75
2022/09/30 03:07:02;;;;;;;5.82;3.85;;;;;;;11.98;100.00;94354.22;5129865;27;20225;-75
2022/09/30 03:09:29;;;;;;;4.60;3.00;;;;;;;11.93;100.00;94372.66;5129661;27;20224;-75
2022/09/30 03:12:06;;;;;;;6.63;3.55;;;;;;;12.17;100.00;94377.25;5129407;27;20213;-75
2022/09/30 03:14:47;;;;;;;8.07;4.28;;;;;;;12.14;100.00;94372.53;5129167;27;20215;-76
2022/09/30 03:17:37;;;;;;;8.05;4.38;;;;;;;12.39;100.00;94374.81;5129972;27;20201;-76
2022/09/30 03:20:30;;;;;;;6.30;3.60;;;;;;;12.29;100.00;94367.16;5115654;27;20225;-76
2022/09/30 03:23:19;;;;;;;8.57;4.32;;;;;;;12.58;100.00;94363.31;5116789;28;20208;-75
2022/09/30 03:25:56;;;;;;;9.27;4.93;;;;;;;12.60;100.00;94368.38;5130253;28;20651;-76
2022/09/30 03:28:27;;;;;;;8.25;4.63;;;;;;;12.66;100.00;94364.31;5130239;28;20203;-77
2022/09/30 03:31:04;;;;;;;8.05;4.97;;;;;;;12.86;100.00;94365.22;5130073;28;20305;-76
2022/09/30 03:33:41;;;;;;;16.77;7.05;;;;;;;12.85;100.00;94364.41;5130276;28;20189;-76
2022/09/30 03:36:16;;;;;;;11.80;4.90;;;;;;;12.98;100.00;94367.88;5129811;28;20204;-77
2022/09/30 03:38:51;;;;;;;9.65;5.15;;;;;;;13.02;100.00;94374.19;5130036;28;20197;-77
2022/09/30 03:41:27;;;;;;;14.15;5.57;;;;;;;12.99;100.00;94369.44;5129626;27;20285;-77
2022/09/30 03:44:01;;;;;;;7.70;4.72;;;;;;;13.04;100.00;94369.19;5129637;28;20651;-76
2022/09/30 03:46:34;;;;;;;10.57;5.38;;;;;;;13.08;100.00;94370.88;5129400;28;20599;-76
2022/09/30 03:49:05;;;;;;;8.35;4.88;;;;;;;13.04;100.00;94372.69;5129778;28;20200;-76
2022/09/30 03:51:36;;;;;;;7.32;5.03;;;;;;;13.20;100.00;94375.47;5129224;28;20201;-75
2022/09/30 03:54:08;;;;;;;9.07;5.53;;;;;;;13.31;100.00;94383.91;5129261;28;20597;-75
2022/09/30 03:56:42;;;;;;;14.18;5.00;;;;;;;13.32;100.00;94391.72;5129825;28;20288;-77
2022/09/30 03:59:12;;;;;;;6.20;3.95;;;;;;;13.38;100.00;94398.47;5129868;28;20587;-74
2022/09/30 04:01:39;;;;;;;19.35;7.75;;;;;;;13.40;100.00;94379.84;5128296;28;20435;-80
2022/09/30 04:04:06;;;;;;;17.52;4.65;;;;;;;13.40;100.00;94379.84;5130287;28;20227;-74
2022/09/30 04:06:34;;;;;;;9.75;4.10;;;;;;;13.28;100.00;94388.09;5129782;28;20209;-77
2022/09/30 04:09:01;;;;;;;12.90;4.35;;;;;;;13.43;100.00;94394.69;5128937;27;20832;-77
2022/09/30 04:11:27;;;;;;;7.90;4.15;;;;;;;13.36;100.00;94379.00;5130979;27;20259;-76
2022/09/30 04:13:55;;;;;;;12.00;3.60;;;;;;;13.07;100.00;94387.53;5133517;27;20621;-77
2022/09/30 04:16:21;;;;;;;20.90;5.55;;;;;;;13.32;100.00;94389.00;5132775;27;20620;-77
2022/09/30 04:18:48;;;;;;;7.13;3.30;;;;;;;13.13;100.00;94386.13;5132728;27;20249;-77
2022/09/30 04:21:15;;;;;;;14.45;4.95;;;;;;;13.19;100.00;94395.66;5132874;27;20232;-76
2022/09/30 04:23:44;;;;;;;26.65;4.82;;;;;;;13.37;100.00;94386.03;5132726;27;20796;-75
2022/09/30 04:26:13;;;;;;;5.10;3.25;;;;;;;13.23;100.00;94380.22;5133194;27;20228;-77
2022/09/30 04:28:39;;;;;;;13.48;4.43;;;;;;;13.12;100.00;94381.81;5127627;27;20197;-76
2022/09/30 04:31:07;;;;;;;9.77;4.93;;;;;;;13.32;100.00;94378.09;5132717;27;20262;-76
2022/09/30 04:33:34;;;;;;;8.65;3.83;;;;;;;13.36;100.00;94394.53;5132273;27;20261;-76
2022/09/30 04:36:02;;;;;;;15.95;5.15;;;;;;;13.39;100.00;94399.28;5132909;27;20204;-76
2022/09/30 04:38:28;;;;;;;6.70;4.13;;;;;;;13.35;100.00;94393.75;5132992;27;20628;-76
2022/09/30 04:40:57;;;;;;;7.28;4.70;;;;;;;13.37;100.00;94396.91;5132759;27;20640;-76
2022/09/30 04:43:24;;;;;;;10.15;5.78;;;;;;;13.41;100.00;94395.03;5132456;27;20221;-76
2022/09/30 04:45:53;;;;;;;7.90;3.72;;;;;;;13.27;100.00;94408.28;5132257;27;20324;-75
2022/09/30 04:48:21;;;;;;;10.10;4.28;;;;;;;13.30;100.00;94401.34;5132651;27;20211;-76
2022/09/30 04:50:49;;;;;;;7.00;3.63;;;;;;;13.39;100.00;94419.09;5132876;27;20236;-76
2022/09/30 04:53:16;;;;;;;9.45;4.55;;;;;;;13.30;100.00;94415.75;5132198;27;20689;-76
2022/09/30 04:55:43;;;;;;;9.32;4.70;;;;;;;13.57;100.00;94432.34;5133159;27;20205;-75
2022/09/30 04:58:11;;;;;;;8.50;4.63;;;;;;;13.47;100.00;94441.84;5132797;27;20201;-76
2022/09/30 05:00:38;;;;;;;8.35;4.82;;;;;;;13.51;100.00;94443.53;5132498;27;20736;-76
2022/09/30 05:03:05;;;;;;;10.07;4.40;;;;;;;13.24;100.00;94435.41;5132839;27;20570;-77
2022/09/30 05:05:33;;;;;;;7.07;4.00;;;;;;;13.19;100.00;94439.16;5132365;27;20261;-77
2022/09/30 05:08:01;;;;;;;8.52;4.53;;;;;;;13.47;100.00;94445.34;5132515;27;20205;-76
2022/09/30 05:10:28;;;;;;;8.15;4.35;;;;;;;13.30;100.00;94429.34;5131980;27;20232;-76
2022/09/30 05:12:55;;;;;;;24.10;6.65;;;;;;;13.23;100.00;94420.22;5132609;27;20304;-76
2022/09/30 05:15:24;;;;;;;11.65;6.53;;;;;;;13.51;100.00;94429.13;5132694;27;20197;-77
2022/09/30 05:17:51;;;;;;;15.85;5.88;;;;;;;13.68;100.00;94434.19;5132643;27;20777;-77
2022/09/30 05:20:18;;;;;;;12.82;5.80;;;;;;;13.76;100.00;94440.63;5131829;27;20205;-77
2022/09/30 05:22:46;;;;;;;12.30;5.55;;;;;;;13.89;100.00;94463.88;5131253;27;20205;-75
2022/09/30 05:25:13;;;;;;;20.23;6.47;;;;;;;13.87;100.00;94458.00;5132267;27;20253;-76
2022/09/30 05:27:40;;;;;;;14.52;7.20;;;;;;;13.93;100.00;94447.63;5132303;27;20189;-77
2022/09/30 05:30:08;;;;;;;14.52;6.43;;;;;;;14.16;100.00;94460.25;5132189;27;20723;-77
2022/09/30 05:32:36;;;;;;;22.25;7.00;;;;;;;14.41;100.00;94449.16;5132408;27;20205;-76
2022/09/30 05:35:03;;;;;;;14.80;7.15;;;;;;;14.36;100.00;94446.66;5132333;27;20204;-75
2022/09/30 05:37:30;;;;;;;15.68;6.30;;;;;;;14.38;100.00;94449.81;5131949;27;20660;-76
2022/09/30 05:39:58;;;;;;;23.17;8.63;;;;;;;14.36;100.00;94465.75;5131837;27;20205;-76
2022/09/30 05:42:25;;;;;;;11.48;5.50;;;;;;;14.20;100.00;94461.13;5131436;27;20281;-74
2022/09/30 05:44:52;;;;;;;13.07;6.82;;;;;;;14.30;100.00;94461.72;5131964;27;20229;-75
2022/09/30 05:47:18;;;;;;;32.95;7.15;;;;;;;14.39;100.00;94473.22;5131407;27;20255;-76
2022/09/30 05:49:47;;;;;;;24.17;8.05;;;;;;;14.40;100.00;94469.38;5130521;27;20233;-76
2022/09/30 05:52:14;;;;;;;13.35;7.15;;;;;;;14.40;100.00;94474.81;5131715;27;20200;-75
2022/09/30 05:54:41;;;;;;;18.95;8.90;;;;;;;14.58;100.00;94486.91;5131548;27;20205;-75
2022/09/30 05:57:08;;;;;;;15.05;6.57;;;;;;;14.13;100.00;94481.97;5131869;27;20204;-75
2022/09/30 05:59:36;;;;;;;16.52;8.25;;;;;;;14.23;100.00;94482.19;5131323;27;20582;-75
2022/09/30 06:02:04;;;;;;;21.88;9.10;;;;;;;14.63;100.00;94497.53;5131346;27;20289;-75
2022/09/30 06:04:31;;;;;;;17.25;8.23;;;;;;;14.36;100.00;94479.38;5130654;27;20205;-74
2022/09/30 06:06:59;;;;;;;29.30;8.80;;;;;;;14.53;100.00;94489.91;5131554;27;20209;-74
2022/09/30 06:09:26;;;;;;;23.10;9.20;;;;;;;14.80;100.00;94483.50;5131392;27;20586;-74
2022/09/30 06:11:59;;;;;;;20.40;8.57;;;;;;;15.45;100.00;94486.34;5131362;27;20232;-73
2022/09/30 06:14:27;;;;;;;21.15;9.18;;;;;;;15.52;100.00;94491.16;5131610;27;20229;-73
2022/09/30 06:16:54;;;;;;;25.83;9.50;;;;;;;15.12;100.00;94488.81;5131458;27;20196;-74
2022/09/30 06:19:21;;;;;;;26.40;11.20;;;;;;;15.05;100.00;94497.66;5131249;27;20201;-75
2022/09/30 06:21:48;;;;;;;24.63;11.70;;;;;;;14.92;100.00;94486.09;5130884;27;20277;-75
2022/09/30 06:24:16;;;;;;;26.58;11.18;;;;;;;15.52;100.00;94493.88;5131178;27;20205;-75
2022/09/30 06:26:43;;;;;;;33.40;12.70;;;;;;;16.69;100.00;94488.44;5131078;27;20201;-75
2022/09/30 06:29:09;;;;;;;36.30;12.02;;;;;;;16.60;99.09;94485.16;5131016;27;20421;-75
2022/09/30 06:31:36;;;;;;;27.50;11.73;;;;;;;16.58;97.88;94492.94;5130893;27;20659;-75
2022/09/30 06:34:05;;;;;;;23.85;11.02;;;;;;;15.98;100.00;94497.47;5130494;27;20200;-75
2022/09/30 06:36:32;;;;;;;29.73;11.75;;;;;;;16.27;100.00;94499.50;5130369;27;20216;-75
2022/09/30 06:39:00;;;;;;;25.45;11.70;;;;;;;16.10;100.00;94494.56;5130210;27;20289;-74
2022/09/30 06:41:29;;;;;;;30.65;12.43;;;;;;;16.62;100.00;94498.47;5130547;27;20296;-75
2022/09/30 06:43:56;;;;;;;29.75;12.07;;;;;;;16.79;97.56;94503.44;5129785;27;20692;-75
2022/09/30 06:46:24;;;;;;;27.15;12.13;;;;;;;16.16;98.80;94504.00;5131066;27;20254;-75
2022/09/30 06:48:55;;;;;;;30.27;12.50;;;;;;;16.47;100.00;94521.28;5130440;27;20201;-75
2022/09/30 06:51:25;;;;;;;33.47;12.20;;;;;;;16.84;98.60;94522.25;5130482;27;20201;-75
2022/09/30 06:53:53;;;;;;;24.42;11.60;;;;;;;16.99;96.55;94526.78;5130828;27;20301;-75
2022/09/30 06:56:20;;;;;;;25.60;12.63;;;;;;;17.16;95.11;94543.81;5130587;27;20212;-75
2022/09/30 06:58:48;;;;;;;35.65;18.48;;;;;;;17.04;95.42;94545.63;5130913;27;20246;-75
2022/09/30 07:01:15;;;;;;;34.55;18.35;;;;;;;17.34;92.45;94539.34;5130434;27;20229;-75
2022/09/30 07:03:44;;;;;;;32.30;12.45;;;;;;;17.50;90.42;94542.66;5130505;27;20208;-74
2022/09/30 07:06:14;;;;;;;27.70;13.00;;;;;;;17.94;90.18;94550.22;5130252;27;20609;-74
2022/09/30 07:08:41;;;;;;;25.88;12.65;;;;;;;17.18;89.90;94544.22;5130471;27;20707;-74
2022/09/30 07:11:13;;;;;;;28.80;12.48;;;;;;;16.91;95.08;94538.78;5130419;27;20843;-74
2022/09/30 07:13:42;;;;;;;31.63;14.55;;;;;;;17.56;94.01;94552.13;5130304;27;20745;-74
2022/09/30 07:16:10;;;;;;;23.10;11.57;;;;;;;18.11;89.41;94552.34;5130406;27;20580;-74
2022/09/30 07:18:38;;;;;;;28.73;11.85;;;;;;;18.26;87.60;94554.06;5130341;27;20292;-73
2022/09/30 07:21:05;;;;;;;32.00;17.63;;;;;;;18.45;88.25;94553.84;5130135;27;20208;-74
2022/09/30 07:23:32;;;;;;;29.65;12.07;;;;;;;18.30;84.89;94551.38;5130047;27;20759;-74
2022/09/30 07:26:03;;;;;;;23.50;10.73;;;;;;;18.70;87.04;94562.31;5130045;28;20205;-73
2022/09/30 07:28:32;;;;;;;25.17;11.80;;;;;;;19.00;83.49;94562.09;5129989;27;20207;-74
2022/09/30 07:31:02;;;;;;;32.80;17.50;;;;;;;19.27;81.74;94553.66;5130541;28;20288;-73
2022/09/30 07:33:31;;;;;;;32.88;18.30;;;;;;;20.31;78.46;94572.88;5130361;28;20209;-75
2022/09/30 07:35:59;;;;;;;27.95;16.05;;;;;;;20.57;76.81;94569.78;5130629;28;20304;-73
2022/09/30 07:38:30;;;;;;;29.67;17.08;;;;;;;20.29;76.53;94575.22;5130182;28;20253;-73
2022/09/30 07:40:59;;;;;;;29.75;16.88;;;;;;;20.11;78.17;94568.91;5130636;28;20221;-73
2022/09/30 07:43:33;;;;;;;25.23;16.45;;;;;;;19.44;79.80;94563.94;5129905;27;20232;-73
2022/09/30 07:46:03;;;;;;;21.73;11.07;;;;;;;19.59;79.79;94559.31;5130876;27;20218;-72
2022/09/30 07:48:42;;;;;;;28.08;16.17;;;;;;;18.91;81.42;94564.41;5134925;27;20207;-73
2022/09/30 07:51:09;;;;;;;24.92;15.93;;;;;;;19.15;81.83;94562.97;5134206;27;20201;-73
2022/09/30 07:53:36;;;;;;;22.85;12.25;;;;;;;18.77;81.67;94556.06;5132871;27;20224;-73
2022/09/30 07:56:04;;;;;;;18.33;9.93;;;;;;;18.67;83.02;94560.31;5134140;27;20189;-74
2022/09/30 07:58:31;;;;;;;20.83;10.30;;;;;;;18.67;81.96;94565.03;5120438;27;20211;-74
2022/09/30 08:00:58;;;;;;;23.70;11.50;;;;;;;18.34;83.99;94571.38;5132675;27;20679;-74
2022/09/30 08:03:26;;;;;;;22.40;12.95;;;;;;;18.48;84.81;94575.03;5133539;27;20273;-73
2022/09/30 08:05:54;;;;;;;19.98;12.13;;;;;;;18.69;81.47;94574.47;5133546;27;20280;-72
2022/09/30 08:08:21;;;;;;;20.00;12.52;;;;;;;18.51;84.09;94586.41;5133901;27;20703;-74
2022/09/30 08:10:48;;;;;;;22.90;13.32;;;;;;;18.69;82.23;94587.38;5133875;27;20590;-74
2022/09/30 08:13:15;;;;;;;21.48;13.88;;;;;;;18.63;83.66;94583.41;5134014;27;20258;-73
2022/09/30 08:15:42;;;;;;;21.90;12.45;;;;;;;18.72;82.40;94581.16;5133779;27;20209;-73
2022/09/30 08:18:09;;;;;;;21.35;13.38;;;;;;;18.89;81.88;94594.19;5133468;27;20197;-72
2022/09/30 08:20:36;;;;;;;21.48;11.63;;;;;;;18.81;80.50;94598.84;5133088;27;20216;-73
2022/09/30 08:23:04;;;;;;;17.88;12.18;;;;;;;18.81;81.77;94587.88;5133314;27;20277;-73
2022/09/30 08:25:31;;;;;;;18.20;11.65;;;;;;;19.23;81.58;94591.28;5132912;27;20217;-73
2022/09/30 08:27:58;;;;;;;13.93;6.28;;;;;;;18.96;81.08;94594.25;5132984;27;20564;-77
2022/09/30 08:30:24;;;;;;;13.85;6.45;;;;;;;18.81;81.31;94587.88;5132063;27;20576;-75
2022/09/30 08:32:51;;;;;;;11.88;7.45;;;;;;;18.93;81.17;94603.25;5133118;27;20304;-73
2022/09/30 08:35:18;;;;;;;14.93;10.77;;;;;;;19.25;81.03;94599.94;5133261;27;20196;-73
2022/09/30 08:37:45;;;;;;;13.10;9.00;;;;;;;19.60;78.02;94605.66;5133187;27;20205;-73
2022/09/30 08:40:20;;;;;;;10.25;6.72;;;;;;;19.67;76.40;94589.22;5133440;27;20649;-74
2022/09/30 08:43:10;;;;;;;12.02;8.63;;;;;;;19.56;75.78;94582.84;5133238;27;20228;-73
2022/09/30 08:45:47;;;;;;;17.85;9.25;;;;;;;19.65;77.14;94599.78;5133376;27;20296;-73
2022/09/30 08:48:30;;;;;;;15.10;8.88;;;;;;;20.00;76.28;94592.84;5132765;27;20248;-74
2022/09/30 08:51:07;;;;;;;12.50;8.23;;;;;;;20.02;76.91;94588.53;5132556;27;20715;-73
2022/09/30 08:53:38;;;;;;;10.60;7.43;;;;;;;19.93;75.39;94601.88;5133202;27;20709;-72
2022/09/30 08:56:07;;;;;;;9.30;6.25;;;;;;;19.92;73.67;94616.00;5132393;27;20258;-72
2022/09/30 08:58:37;;;;;;;12.38;6.97;;;;;;;20.03;75.44;94612.09;5132963;27;20824;-74
2022/09/30 09:01:15;;;;;;;12.05;7.93;;;;;;;20.14;74.19;94606.63;5131765;27;20724;-74
2022/09/30 09:03:44;;;;;;;11.30;7.53;;;;;;;19.99;74.25;94605.81;5132863;27;20223;-74
2022/09/30 09:06:27;;;;;;;13.32;7.80;;;;;;;19.98;73.60;94614.44;5132515;27;20247;-73
2022/09/30 09:09:08;;;;;;;13.98;7.43;;;;;;;20.04;73.80;94612.91;5132793;27;20637;-73
2022/09/30 09:11:50;;;;;;;11.55;6.30;;;;;;;19.87;74.62;94592.41;5132956;27;20262;-72
2022/09/30 09:14:29;;;;;;;10.38;6.85;;;;;;;19.97;73.75;94601.88;5132773;27;20538;-74
2022/09/30 09:17:07;;;;;;;13.40;7.72;;;;;;;20.45;73.18;94621.69;5130171;27;20232;-73
2022/09/30 09:19:42;;;;;;;16.35;8.40;;;;;;;20.70;72.55;94613.44;5132238;27;20208;-74
2022/09/30 09:22:10;;;;;;;10.75;7.80;;;;;;;20.91;72.68;94616.19;5131693;27;20678;-72
2022/09/30 09:24:44;;;;;;;11.85;7.68;;;;;;;21.06;72.19;94612.25;5132849;27;20282;-74
2022/09/30 09:27:20;;;;;;;13.65;7.68;;;;;;;21.00;71.37;94624.88;5131619;27;20280;-73
2022/09/30 09:30:00;;;;;;;11.43;6.50;;;;;;;20.57;71.88;94619.34;5131427;27;20576;-73
2022/09/30 09:32:28;;;;;;;12.38;7.88;;;;;;;20.49;72.58;94609.50;5131292;27;20553;-74
2022/09/30 09:34:59;;;;;;;10.18;6.38;;;;;;;20.93;71.16;94624.84;5132378;27;20295;-76
2022/09/30 09:40:27;;;;;;;11.38;6.38;;;;;;;20.90;71.73;94620.94;5132015;27;20200;-74
2022/09/30 09:43:06;;;;;;;9.65;6.70;;;;;;;21.30;70.37;94618.19;5132206;27;20237;-73
2022/09/30 09:45:39;;;;;;;11.48;5.97;;;;;;;21.37;69.07;94620.91;5132211;27;20261;-72
2022/09/30 09:48:10;;;;;;;8.25;6.18;;;;;;;21.47;68.75;94625.59;5127502;27;20217;-72
2022/09/30 09:50:46;;;;;;;10.07;6.07;;;;;;;21.68;67.21;94613.75;5130371;27;20229;-71
2022/09/30 09:53:36;;;;;;;9.10;6.05;;;;;;;21.79;68.11;94615.28;5131667;27;20548;-72
2022/09/30 09:56:17;;;;;;;7.65;6.18;;;;;;;21.72;66.80;94604.28;5120186;27;20265;-73
2022/09/30 09:59:12;;;;;;;9.50;5.97;;;;;;;21.83;64.62;94605.03;5119299;27;20201;-74
2022/09/30 10:01:41;;;;;;;8.90;5.78;;;;;;;21.93;63.94;94614.44;5131463;27;20197;-74
2022/09/30 10:04:15;;;;;;;11.32;6.90;;;;;;;22.04;64.88;94619.94;5130836;27;20205;-73
2022/09/30 10:06:51;;;;;;;9.85;6.63;;;;;;;22.29;65.17;94615.88;5131079;27;20236;-73
2022/09/30 10:09:30;;;;;;;12.82;7.05;;;;;;;22.50;63.94;94614.97;5130774;27;20196;-75
2022/09/30 10:12:26;;;;;;;12.13;7.53;;;;;;;22.62;63.49;94617.25;5131604;27;20201;-76
2022/09/30 10:14:58;;;;;;;13.02;6.95;;;;;;;22.52;62.84;94615.38;5131368;27;21246;-77
2022/09/30 10:17:29;;;;;;;10.43;6.97;;;;;;;22.37;63.13;94616.63;5131169;27;20242;-75
2022/09/30 10:20:00;;;;;;;12.02;7.38;;;;;;;22.64;61.96;94603.84;5130907;27;20219;-75
2022/09/30 10:22:30;;;;;;;9.65;6.30;;;;;;;22.87;61.34;94608.03;5130555;27;20610;-75
2022/09/30 10:25:21;;;;;;;9.02;6.18;;;;;;;23.04;58.17;94615.41;5130858;27;20300;-74
2022/09/30 10:27:52;;;;;;;9.40;6.03;;;;;;;23.12;58.34;94605.84;5129948;27;20269;-74
2022/09/30 10:30:40;;;;;;;10.82;6.07;;;;;;;23.15;58.06;94599.50;5130082;27;20196;-73
2022/09/30 10:33:21;;;;;;;8.63;5.82;;;;;;;23.13;57.08;94601.88;5129963;27;20656;-74
2022/09/30 10:35:53;;;;;;;10.10;5.55;;;;;;;23.37;58.40;94589.81;5129818;27;20202;-74
2022/09/30 10:38:20;;;;;;;10.63;5.80;;;;;;;23.41;58.05;94592.53;5130981;27;20718;-75
2022/09/30 10:40:50;;;;;;;7.40;4.95;;;;;;;23.37;54.99;94587.03;5130304;27;20439;-74
2022/09/30 10:43:21;;;;;;;7.13;4.43;;;;;;;23.43;55.83;94592.13;5130276;27;20247;-74
2022/09/30 10:45:51;;;;;;;7.00;4.38;;;;;;;23.61;55.56;94582.50;5130073;27;20226;-73
2022/09/30 10:48:22;;;;;;;6.90;3.50;;;;;;;23.76;53.96;94596.94;5125788;27;20258;-72
2022/09/30 10:50:53;;;;;;;7.03;3.88;;;;;;;23.96;53.70;94603.41;5129700;27;20316;-73
2022/09/30 10:53:24;;;;;;;4.55;2.78;;;;;;;23.78;51.05;94597.28;5129736;27;20667;-73
2022/09/30 10:55:53;;;;;;;5.82;3.85;;;;;;;23.95;53.28;94596.31;5129619;27;20246;-74
2022/09/30 10:58:38;;;;;;;5.05;3.13;;;;;;;24.11;51.24;94587.41;5129050;27;20208;-73
2022/09/30 11:01:17;;;;;;;4.95;3.90;;;;;;;24.08;52.94;94593.78;5130629;27;20200;-72
2022/09/30 11:03:54;;;;;;;2.90;2.60;;;;;;;23.82;51.21;94595.28;5130844;27;20313;-73
2022/09/30 11:06:23;;;;;;;4.63;2.72;;;;;;;23.87;51.29;94594.84;5129417;27;20207;-72
2022/09/30 11:08:57;;;;;;;3.67;3.00;;;;;;;24.18;51.99;94589.31;5129673;27;20277;-72
2022/09/30 11:11:28;;;;;;;3.22;2.38;;;;;;;24.45;50.53;94595.69;5129363;27;20265;-73
2022/09/30 11:13:57;;;;;;;5.25;2.60;;;;;;;24.24;47.68;94593.22;5130427;27;20695;-73
2022/09/30 11:16:33;;;;;;;4.18;2.50;;;;;;;24.46;48.09;94585.41;5130234;27;20258;-73
2022/09/30 11:19:04;;;;;;;8.18;2.60;;;;;;;24.62;48.98;94594.63;5129990;27;20260;-73
2022/09/30 11:21:37;;;;;;;2.45;2.25;;;;;;;24.70;47.12;94607.19;5129092;27;20340;-72
2022/09/30 11:24:18;;;;;;;4.35;2.45;;;;;;;24.43;46.56;94595.31;5130119;27;20225;-73
2022/09/30 11:26:53;;;;;;;3.53;2.30;;;;;;;24.69;48.36;94594.53;5129323;27;20216;-72
2022/09/30 11:29:34;;;;;;;3.55;2.08;;;;;;;24.90;46.27;94603.72;5115744;28;20224;-73
2022/09/30 11:32:12;;;;;;;3.17;2.05;;;;;;;25.19;46.17;94599.31;5129567;28;20257;-72
2022/09/30 11:34:54;;;;;;;4.10;2.63;;;;;;;25.59;44.96;94596.63;5130261;28;20665;-73
2022/09/30 11:37:30;;;;;;;3.25;2.08;;;;;;;25.55;43.91;94595.91;5129569;28;20197;-73
2022/09/30 11:40:13;;;;;;;3.90;2.28;;;;;;;25.52;42.83;94602.31;5130313;28;20199;-73
2022/09/30 11:42:47;;;;;;;4.18;1.75;;;;;;;25.61;43.36;94603.34;5130054;28;20225;-73
2022/09/30 11:45:32;;;;;;;2.00;1.80;;;;;;;25.80;42.25;94599.03;5130007;28;20543;-72